sensor_id;sensor_type;location;lat;lon;timestamp;P1;P2;P0
1723;PMS7003;7460;52.738;6.282;2022-10-16T00:01:38;3896.60;3896.60;3896.60
1723;PMS7003;7460;52.738;6.282;2022-10-16T00:04:12;3319.50;3319.50;3313.25
1723;PMS7003;7460;52.738;6.282;2022-10-16T00:06:46;71.00;58.67;55.00
1723;PMS7003;7460;52.738;6.282;2022-10-16T00:09:19;3891.20;3891.20;3891.20
1723;PMS7003;7460;52.738;6.282;2022-10-16T00:11:52;3930.00;3930.00;3930.00
1723;PMS7003;7460;52.738;6.282;2022-10-16T00:14:30;3856.00;3856.00;3856.00
1723;PMS7003;7460;52.738;6.282;2022-10-16T00:17:04;3882.25;3882.25;3882.25
1723;PMS7003;7460;52.738;6.282;2022-10-16T00:19:36;3893.00;3893.00;3893.00
1723;PMS7003;7460;52.738;6.282;2022-10-16T00:22:11;98.80;98.80;98.60
1723;PMS7003;7460;52.738;6.282;2022-10-16T00:24:43;3897.50;3897.50;3897.50
1723;PMS7003;7460;52.738;6.282;2022-10-16T00:27:16;3877.80;3877.80;3877.80
1723;PMS7003;7460;52.738;6.282;2022-10-16T00:29:49;3903.80;3903.80;3903.80
1723;PMS7003;7460;52.738;6.282;2022-10-16T00:32:22;3908.75;3908.75;3908.75
1723;PMS7003;7460;52.738;6.282;2022-10-16T00:34:56;3916.00;3916.00;3916.00
1723;PMS7003;7460;52.738;6.282;2022-10-16T00:37:30;3898.40;3898.40;3898.40
1723;PMS7003;7460;52.738;6.282;2022-10-16T00:40:03;3889.00;3889.00;3889.00
1723;PMS7003;7460;52.738;6.282;2022-10-16T00:42:36;1011.40;1011.40;997.40
1723;PMS7003;7460;52.738;6.282;2022-10-16T00:45:10;3697.00;3697.00;3695.75
1723;PMS7003;7460;52.738;6.282;2022-10-16T00:47:43;3855.75;3855.75;3855.75
1723;PMS7003;7460;52.738;6.282;2022-10-16T00:50:22;3498.00;3498.00;3491.00
1723;PMS7003;7460;52.738;6.282;2022-10-16T00:53:00;313.60;312.00;302.40
1723;PMS7003;7460;52.738;6.282;2022-10-16T00:55:35;3898.40;3898.40;3898.40
1723;PMS7003;7460;52.738;6.282;2022-10-16T00:58:12;3927.40;3927.40;3927.40
1723;PMS7003;7460;52.738;6.282;2022-10-16T01:00:45;3897.50;3897.50;3897.50
1723;PMS7003;7460;52.738;6.282;2022-10-16T01:03:22;3886.25;3886.25;3886.25
1723;PMS7003;7460;52.738;6.282;2022-10-16T01:06:00;3873.50;3873.50;3873.50
1723;PMS7003;7460;52.738;6.282;2022-10-16T01:08:52;3113.00;3113.00;3104.75
1723;PMS7003;7460;52.738;6.282;2022-10-16T01:11:36;3787.20;3787.20;3787.20
1723;PMS7003;7460;52.738;6.282;2022-10-16T01:14:19;3828.00;3828.00;3828.00
1723;PMS7003;7460;52.738;6.282;2022-10-16T01:17:00;3889.40;3889.40;3889.40
1723;PMS7003;7460;52.738;6.282;2022-10-16T01:19:50;3873.25;3873.25;3873.25
1723;PMS7003;7460;52.738;6.282;2022-10-16T01:22:37;3893.00;3893.00;3893.00
1723;PMS7003;7460;52.738;6.282;2022-10-16T01:25:19;3891.25;3891.25;3891.25
1723;PMS7003;7460;52.738;6.282;2022-10-16T01:28:04;3861.20;3861.20;3861.20
1723;PMS7003;7460;52.738;6.282;2022-10-16T01:30:42;3831.80;3831.80;3831.80
1723;PMS7003;7460;52.738;6.282;2022-10-16T01:33:18;5.75;5.75;5.75
1723;PMS7003;7460;52.738;6.282;2022-10-16T01:35:54;3899.75;3899.75;3899.75
1723;PMS7003;7460;52.738;6.282;2022-10-16T01:38:31;3891.20;3891.20;3891.20
1723;PMS7003;7460;52.738;6.282;2022-10-16T01:41:09;1042.75;1042.75;1027.00
1723;PMS7003;7460;52.738;6.282;2022-10-16T01:43:48;2194.50;2194.50;2184.25
1723;PMS7003;7460;52.738;6.282;2022-10-16T01:46:26;3855.75;3855.75;3855.75
1723;PMS7003;7460;52.738;6.282;2022-10-16T01:49:02;3875.40;3875.40;3875.40
1723;PMS7003;7460;52.738;6.282;2022-10-16T01:51:36;3913.50;3913.50;3913.50
1723;PMS7003;7460;52.738;6.282;2022-10-16T01:54:09;3819.80;3819.80;3819.40
1723;PMS7003;7460;52.738;6.282;2022-10-16T01:56:45;3830.80;3830.80;3830.00
1723;PMS7003;7460;52.738;6.282;2022-10-16T01:59:22;3920.80;3920.80;3920.80
1723;PMS7003;7460;52.738;6.282;2022-10-16T02:01:58;2308.40;2308.40;2302.00
1723;PMS7003;7460;52.738;6.282;2022-10-16T02:04:34;3898.80;3898.80;3898.80
1723;PMS7003;7460;52.738;6.282;2022-10-16T02:07:10;3915.00;3915.00;3915.00
1723;PMS7003;7460;52.738;6.282;2022-10-16T02:09:44;3934.25;3934.25;3934.25
1723;PMS7003;7460;52.738;6.282;2022-10-16T02:12:19;3920.25;3920.25;3920.25
1723;PMS7003;7460;52.738;6.282;2022-10-16T02:14:59;3875.60;3875.60;3875.60
1723;PMS7003;7460;52.738;6.282;2022-10-16T02:17:32;3929.80;3929.80;3929.80
1723;PMS7003;7460;52.738;6.282;2022-10-16T02:20:05;3907.80;3907.80;3907.80
1723;PMS7003;7460;52.738;6.282;2022-10-16T02:22:39;3890.75;3890.75;3890.75
1723;PMS7003;7460;52.738;6.282;2022-10-16T02:25:15;3916.80;3916.80;3916.80
1723;PMS7003;7460;52.738;6.282;2022-10-16T02:27:54;3920.80;3920.80;3920.80
1723;PMS7003;7460;52.738;6.282;2022-10-16T02:30:32;3940.80;3940.80;3940.80
1723;PMS7003;7460;52.738;6.282;2022-10-16T02:33:09;3956.75;3956.75;3956.75
1723;PMS7003;7460;52.738;6.282;2022-10-16T02:35:46;3964.40;3964.40;3964.40
1723;PMS7003;7460;52.738;6.282;2022-10-16T02:38:22;3944.20;3944.20;3944.20
1723;PMS7003;7460;52.738;6.282;2022-10-16T02:40:57;3961.20;3961.20;3961.20
1723;PMS7003;7460;52.738;6.282;2022-10-16T02:43:31;3957.00;3957.00;3957.00
1723;PMS7003;7460;52.738;6.282;2022-10-16T02:46:06;3952.50;3952.50;3952.50
1723;PMS7003;7460;52.738;6.282;2022-10-16T02:48:39;3942.80;3942.80;3942.80
1723;PMS7003;7460;52.738;6.282;2022-10-16T02:51:12;3970.75;3970.75;3970.75
1723;PMS7003;7460;52.738;6.282;2022-10-16T02:53:45;3949.40;3949.40;3949.40
1723;PMS7003;7460;52.738;6.282;2022-10-16T02:56:17;325.20;324.80;324.20
1723;PMS7003;7460;52.738;6.282;2022-10-16T02:58:50;3980.25;3980.25;3980.25
1723;PMS7003;7460;52.738;6.282;2022-10-16T03:01:24;3962.60;3962.60;3962.60
1723;PMS7003;7460;52.738;6.282;2022-10-16T03:03:57;3982.75;3982.75;3982.75
1723;PMS7003;7460;52.738;6.282;2022-10-16T03:06:30;4018.80;4018.80;4018.80
1723;PMS7003;7460;52.738;6.282;2022-10-16T03:09:03;3948.00;3948.00;3948.00
1723;PMS7003;7460;52.738;6.282;2022-10-16T03:11:36;1283.80;1283.80;1282.20
1723;PMS7003;7460;52.738;6.282;2022-10-16T03:14:09;102.20;102.20;98.00
1723;PMS7003;7460;52.738;6.282;2022-10-16T03:16:43;1761.25;1761.25;1747.50
1723;PMS7003;7460;52.738;6.282;2022-10-16T03:19:16;4002.40;4002.40;4002.40
1723;PMS7003;7460;52.738;6.282;2022-10-16T03:21:49;4020.75;4020.75;4020.75
1723;PMS7003;7460;52.738;6.282;2022-10-16T03:24:22;4025.20;4025.20;4025.20
1723;PMS7003;7460;52.738;6.282;2022-10-16T03:26:55;3757.60;3757.60;3757.60
1723;PMS7003;7460;52.738;6.282;2022-10-16T03:29:28;99.60;99.60;98.40
1723;PMS7003;7460;52.738;6.282;2022-10-16T03:32:02;95.40;93.80;93.20
1723;PMS7003;7460;52.738;6.282;2022-10-16T03:34:35;4019.40;4019.40;4019.40
1723;PMS7003;7460;52.738;6.282;2022-10-16T03:37:08;4028.80;4028.80;4028.80
1723;PMS7003;7460;52.738;6.282;2022-10-16T03:39:40;3970.60;3970.60;3970.60
1723;PMS7003;7460;52.738;6.282;2022-10-16T03:42:13;4042.00;4042.00;4042.00
1723;PMS7003;7460;52.738;6.282;2022-10-16T03:44:46;4128.75;4128.75;4128.75
1723;PMS7003;7460;52.738;6.282;2022-10-16T03:47:20;4108.50;4108.50;4108.50
1723;PMS7003;7460;52.738;6.282;2022-10-16T03:49:55;4098.50;4098.50;4098.50
1723;PMS7003;7460;52.738;6.282;2022-10-16T03:52:28;2886.40;2886.40;2881.60
1723;PMS7003;7460;52.738;6.282;2022-10-16T03:55:01;107.60;107.60;107.60
1723;PMS7003;7460;52.738;6.282;2022-10-16T03:57:33;3870.60;3870.60;3870.60
1723;PMS7003;7460;52.738;6.282;2022-10-16T04:00:07;0.00;0.00;0.00
1723;PMS7003;7460;52.738;6.282;2022-10-16T04:02:42;327.00;318.80;318.40
1723;PMS7003;7460;52.738;6.282;2022-10-16T04:05:19;4103.00;4103.00;4103.00
1723;PMS7003;7460;52.738;6.282;2022-10-16T04:07:52;4097.00;4097.00;4097.00
1723;PMS7003;7460;52.738;6.282;2022-10-16T04:10:26;4126.00;4126.00;4126.00
1723;PMS7003;7460;52.738;6.282;2022-10-16T04:12:59;0.00;0.00;0.00
1723;PMS7003;7460;52.738;6.282;2022-10-16T04:15:32;0.00;0.00;0.00
1723;PMS7003;7460;52.738;6.282;2022-10-16T04:18:06;1.00;1.00;1.00
1723;PMS7003;7460;52.738;6.282;2022-10-16T04:20:39;1.25;1.25;1.25
1723;PMS7003;7460;52.738;6.282;2022-10-16T04:23:13;27.00;27.00;25.50
1723;PMS7003;7460;52.738;6.282;2022-10-16T04:25:46;26.00;26.00;24.50
1723;PMS7003;7460;52.738;6.282;2022-10-16T04:28:19;0.00;0.00;0.00
1723;PMS7003;7460;52.738;6.282;2022-10-16T04:30:52;1.00;1.00;0.00
1723;PMS7003;7460;52.738;6.282;2022-10-16T04:33:26;0.00;0.00;0.00
1723;PMS7003;7460;52.738;6.282;2022-10-16T04:35:59;0.00;0.00;0.00
1723;PMS7003;7460;52.738;6.282;2022-10-16T04:38:33;0.00;0.00;0.00
1723;PMS7003;7460;52.738;6.282;2022-10-16T04:41:06;6.20;6.20;6.20
1723;PMS7003;7460;52.738;6.282;2022-10-16T04:43:40;0.00;0.00;0.00
1723;PMS7003;7460;52.738;6.282;2022-10-16T04:46:12;0.00;0.00;0.00
1723;PMS7003;7460;52.738;6.282;2022-10-16T04:48:46;0.00;0.00;0.00
1723;PMS7003;7460;52.738;6.282;2022-10-16T04:51:19;0.00;0.00;0.00
1723;PMS7003;7460;52.738;6.282;2022-10-16T04:53:52;4157.20;4157.20;4157.20
1723;PMS7003;7460;52.738;6.282;2022-10-16T04:56:25;4125.40;4125.40;4125.40
1723;PMS7003;7460;52.738;6.282;2022-10-16T04:58:58;4135.40;4135.40;4135.40
1723;PMS7003;7460;52.738;6.282;2022-10-16T05:01:31;4119.40;4119.40;4119.40
1723;PMS7003;7460;52.738;6.282;2022-10-16T05:04:05;4133.75;4133.75;4133.75
1723;PMS7003;7460;52.738;6.282;2022-10-16T05:06:38;3900.20;3900.20;3898.00
1723;PMS7003;7460;52.738;6.282;2022-10-16T05:09:11;4111.40;4111.40;4111.40
1723;PMS7003;7460;52.738;6.282;2022-10-16T05:11:44;4126.25;4126.25;4126.25
1723;PMS7003;7460;52.738;6.282;2022-10-16T05:14:16;4143.80;4143.80;4143.80
1723;PMS7003;7460;52.738;6.282;2022-10-16T05:16:50;75.50;62.75;59.25
1723;PMS7003;7460;52.738;6.282;2022-10-16T05:19:25;22.25;22.25;21.75
1723;PMS7003;7460;52.738;6.282;2022-10-16T05:21:59;14.00;14.00;14.00
1723;PMS7003;7460;52.738;6.282;2022-10-16T05:24:32;111.50;111.50;111.50
1723;PMS7003;7460;52.738;6.282;2022-10-16T05:27:04;2.25;2.25;2.25
1723;PMS7003;7460;52.738;6.282;2022-10-16T05:29:37;0.00;0.00;0.00
1723;PMS7003;7460;52.738;6.282;2022-10-16T05:32:10;0.00;0.00;0.00
1723;PMS7003;7460;52.738;6.282;2022-10-16T05:34:44;1.00;1.00;1.00
1723;PMS7003;7460;52.738;6.282;2022-10-16T05:37:17;45.50;41.75;35.25
1723;PMS7003;7460;52.738;6.282;2022-10-16T05:39:50;608.80;608.80;600.20
1723;PMS7003;7460;52.738;6.282;2022-10-16T05:42:23;1810.50;1810.50;1807.00
1723;PMS7003;7460;52.738;6.282;2022-10-16T05:44:56;100.50;98.50;98.50
1723;PMS7003;7460;52.738;6.282;2022-10-16T05:47:29;4139.40;4139.40;4139.40
1723;PMS7003;7460;52.738;6.282;2022-10-16T05:50:03;127.50;127.50;127.00
1723;PMS7003;7460;52.738;6.282;2022-10-16T05:52:37;53.25;46.50;39.00
1723;PMS7003;7460;52.738;6.282;2022-10-16T05:55:09;42.25;40.00;33.75
1723;PMS7003;7460;52.738;6.282;2022-10-16T05:57:42;3347.75;3347.75;3347.75
1723;PMS7003;7460;52.738;6.282;2022-10-16T06:00:15;4139.40;4139.40;4139.40
1723;PMS7003;7460;52.738;6.282;2022-10-16T06:02:48;2916.20;2916.20;2916.20
1723;PMS7003;7460;52.738;6.282;2022-10-16T06:05:22;4137.80;4137.80;4137.80
1723;PMS7003;7460;52.738;6.282;2022-10-16T06:07:55;3817.60;3817.60;3816.00
1723;PMS7003;7460;52.738;6.282;2022-10-16T06:10:28;4131.80;4131.80;4131.80
1723;PMS7003;7460;52.738;6.282;2022-10-16T06:13:01;4159.80;4159.80;4159.80
1723;PMS7003;7460;52.738;6.282;2022-10-16T06:15:33;4149.00;4149.00;4149.00
1723;PMS7003;7460;52.738;6.282;2022-10-16T06:18:06;4135.80;4135.80;4135.80
1723;PMS7003;7460;52.738;6.282;2022-10-16T06:20:41;85.80;77.00;75.20
1723;PMS7003;7460;52.738;6.282;2022-10-16T06:23:13;4178.20;4178.20;4178.20
1723;PMS7003;7460;52.738;6.282;2022-10-16T06:25:46;4131.40;4131.40;4131.40
1723;PMS7003;7460;52.738;6.282;2022-10-16T06:28:19;3440.00;3440.00;3438.00
1723;PMS7003;7460;52.738;6.282;2022-10-16T06:30:58;4180.60;4180.60;4180.60
1723;PMS7003;7460;52.738;6.282;2022-10-16T06:33:37;0.00;0.00;0.00
1723;PMS7003;7460;52.738;6.282;2022-10-16T06:36:13;0.00;0.00;0.00
1723;PMS7003;7460;52.738;6.282;2022-10-16T06:38:47;2.50;2.50;2.50
1723;PMS7003;7460;52.738;6.282;2022-10-16T06:41:20;92.60;85.80;85.80
1723;PMS7003;7460;52.738;6.282;2022-10-16T06:43:54;3656.75;3656.75;3656.75
1723;PMS7003;7460;52.738;6.282;2022-10-16T06:46:27;0.75;0.75;0.75
1723;PMS7003;7460;52.738;6.282;2022-10-16T06:49:00;0.00;0.00;0.00
1723;PMS7003;7460;52.738;6.282;2022-10-16T06:51:34;0.00;0.00;0.00
1723;PMS7003;7460;52.738;6.282;2022-10-16T06:54:14;2.50;2.50;2.00
1723;PMS7003;7460;52.738;6.282;2022-10-16T06:56:47;4.00;4.00;4.00
1723;PMS7003;7460;52.738;6.282;2022-10-16T06:59:20;525.60;525.60;521.60
1723;PMS7003;7460;52.738;6.282;2022-10-16T07:01:53;0.00;0.00;0.00
1723;PMS7003;7460;52.738;6.282;2022-10-16T07:04:26;12.50;12.50;12.50
1723;PMS7003;7460;52.738;6.282;2022-10-16T07:07:01;15.00;15.00;15.00
1723;PMS7003;7460;52.738;6.282;2022-10-16T07:09:40;45.75;42.25;35.50
1723;PMS7003;7460;52.738;6.282;2022-10-16T07:12:13;0.00;0.00;0.00
1723;PMS7003;7460;52.738;6.282;2022-10-16T07:14:45;1.75;1.75;1.75
1723;PMS7003;7460;52.738;6.282;2022-10-16T07:17:18;0.00;0.00;0.00
1723;PMS7003;7460;52.738;6.282;2022-10-16T07:19:51;420.50;420.50;419.50
1723;PMS7003;7460;52.738;6.282;2022-10-16T07:22:27;0.50;0.50;0.00
1723;PMS7003;7460;52.738;6.282;2022-10-16T07:25:00;0.00;0.00;0.00
1723;PMS7003;7460;52.738;6.282;2022-10-16T07:27:33;0.00;0.00;0.00
1723;PMS7003;7460;52.738;6.282;2022-10-16T07:30:11;4065.80;4065.80;4065.80
1723;PMS7003;7460;52.738;6.282;2022-10-16T07:32:44;3911.80;3911.80;3911.80
1723;PMS7003;7460;52.738;6.282;2022-10-16T07:35:17;3981.60;3981.60;3981.60
1723;PMS7003;7460;52.738;6.282;2022-10-16T07:37:51;2046.80;2046.80;2034.80
1723;PMS7003;7460;52.738;6.282;2022-10-16T07:40:24;3948.20;3948.20;3948.20
1723;PMS7003;7460;52.738;6.282;2022-10-16T07:42:58;98.50;98.25;98.25
1723;PMS7003;7460;52.738;6.282;2022-10-16T07:45:33;3593.60;3593.60;3592.00
1723;PMS7003;7460;52.738;6.282;2022-10-16T07:48:06;51.60;45.40;40.60
1723;PMS7003;7460;52.738;6.282;2022-10-16T07:50:38;3440.80;3440.80;3438.80
1723;PMS7003;7460;52.738;6.282;2022-10-16T07:53:13;3578.80;3578.80;3578.80
1723;PMS7003;7460;52.738;6.282;2022-10-16T07:55:46;4024.80;4024.80;4024.80
1723;PMS7003;7460;52.738;6.282;2022-10-16T07:58:19;4055.80;4055.80;4055.80
1723;PMS7003;7460;52.738;6.282;2022-10-16T08:00:52;4067.00;4067.00;4067.00
1723;PMS7003;7460;52.738;6.282;2022-10-16T08:03:24;758.60;758.60;751.00
1723;PMS7003;7460;52.738;6.282;2022-10-16T08:05:58;4013.80;4013.80;4013.80
1723;PMS7003;7460;52.738;6.282;2022-10-16T08:08:32;97.40;96.20;96.20
1723;PMS7003;7460;52.738;6.282;2022-10-16T08:11:06;1296.60;1296.60;1296.60
1723;PMS7003;7460;52.738;6.282;2022-10-16T08:13:39;1304.40;1304.40;1301.40
1723;PMS7003;7460;52.738;6.282;2022-10-16T08:16:12;76.75;64.75;62.00
1723;PMS7003;7460;52.738;6.282;2022-10-16T08:18:45;3944.00;3944.00;3944.00
1723;PMS7003;7460;52.738;6.282;2022-10-16T08:21:19;4040.60;4040.60;4040.60
1723;PMS7003;7460;52.738;6.282;2022-10-16T08:23:55;4025.00;4025.00;4025.00
1723;PMS7003;7460;52.738;6.282;2022-10-16T08:26:29;4025.50;4025.50;4025.50
1723;PMS7003;7460;52.738;6.282;2022-10-16T08:29:02;4037.75;4037.75;4037.75
1723;PMS7003;7460;52.738;6.282;2022-10-16T08:31:35;4020.25;4020.25;4020.25
1723;PMS7003;7460;52.738;6.282;2022-10-16T08:34:08;4018.80;4018.80;4018.80
1723;PMS7003;7460;52.738;6.282;2022-10-16T08:36:40;3975.50;3975.50;3975.50
1723;PMS7003;7460;52.738;6.282;2022-10-16T08:39:15;3999.80;3999.80;3999.80
1723;PMS7003;7460;52.738;6.282;2022-10-16T08:41:57;3971.25;3971.25;3971.25
1723;PMS7003;7460;52.738;6.282;2022-10-16T08:47:48;3947.40;3947.40;3947.40
1723;PMS7003;7460;52.738;6.282;2022-10-16T08:50:27;3916.80;3916.80;3916.80
1723;PMS7003;7460;52.738;6.282;2022-10-16T08:53:02;3877.00;3877.00;3877.00
1723;PMS7003;7460;52.738;6.282;2022-10-16T08:55:41;3843.80;3843.80;3843.80
1723;PMS7003;7460;52.738;6.282;2022-10-16T08:58:18;3788.40;3788.40;3788.40
1723;PMS7003;7460;52.738;6.282;2022-10-16T09:00:53;3828.20;3828.20;3828.20
1723;PMS7003;7460;52.738;6.282;2022-10-16T09:03:39;3819.20;3819.20;3819.20
1723;PMS7003;7460;52.738;6.282;2022-10-16T09:06:32;3807.75;3807.75;3807.75
1723;PMS7003;7460;52.738;6.282;2022-10-16T09:12:21;3799.67;3799.67;3799.67
1723;PMS7003;7460;52.738;6.282;2022-10-16T09:15:02;3785.00;3785.00;3785.00
1723;PMS7003;7460;52.738;6.282;2022-10-16T09:17:49;3786.80;3786.80;3786.80
1723;PMS7003;7460;52.738;6.282;2022-10-16T09:20:30;3803.25;3803.25;3803.25
1723;PMS7003;7460;52.738;6.282;2022-10-16T09:23:14;3802.20;3802.20;3802.20
1723;PMS7003;7460;52.738;6.282;2022-10-16T09:25:50;3802.20;3802.20;3802.20
1723;PMS7003;7460;52.738;6.282;2022-10-16T09:28:25;3793.20;3793.20;3793.20
1723;PMS7003;7460;52.738;6.282;2022-10-16T09:30:58;3821.00;3821.00;3821.00
1723;PMS7003;7460;52.738;6.282;2022-10-16T09:33:33;3790.20;3790.20;3790.20
1723;PMS7003;7460;52.738;6.282;2022-10-16T09:36:09;3803.50;3803.50;3803.50
1723;PMS7003;7460;52.738;6.282;2022-10-16T09:38:43;3805.75;3805.75;3805.75
1723;PMS7003;7460;52.738;6.282;2022-10-16T09:41:17;3800.40;3800.40;3800.40
1723;PMS7003;7460;52.738;6.282;2022-10-16T09:43:55;3519.25;3519.25;3517.00
1723;PMS7003;7460;52.738;6.282;2022-10-16T09:46:30;3828.20;3828.20;3828.20
1723;PMS7003;7460;52.738;6.282;2022-10-16T09:49:05;630.40;630.40;611.80
1723;PMS7003;7460;52.738;6.282;2022-10-16T09:52:02;3840.25;3840.25;3840.25
1723;PMS7003;7460;52.738;6.282;2022-10-16T09:54:36;3822.75;3822.75;3822.75
1723;PMS7003;7460;52.738;6.282;2022-10-16T09:57:16;3820.75;3820.75;3820.75
1723;PMS7003;7460;52.738;6.282;2022-10-16T09:59:51;3705.75;3705.75;3705.25
1723;PMS7003;7460;52.738;6.282;2022-10-16T10:02:27;3780.20;3780.20;3780.20
1723;PMS7003;7460;52.738;6.282;2022-10-16T10:05:02;3763.50;3763.50;3763.50
1723;PMS7003;7460;52.738;6.282;2022-10-16T10:07:38;3629.40;3629.40;3629.40
1723;PMS7003;7460;52.738;6.282;2022-10-16T10:10:19;3768.00;3768.00;3768.00
1723;PMS7003;7460;52.738;6.282;2022-10-16T10:12:54;3610.40;3610.40;3610.40
1723;PMS7003;7460;52.738;6.282;2022-10-16T10:15:33;3621.40;3621.40;3621.40
1723;PMS7003;7460;52.738;6.282;2022-10-16T10:18:15;3446.75;3446.75;3442.50
1723;PMS7003;7460;52.738;6.282;2022-10-16T10:20:59;3584.60;3584.60;3584.60
1723;PMS7003;7460;52.738;6.282;2022-10-16T10:23:38;3622.60;3622.60;3622.60
1723;PMS7003;7460;52.738;6.282;2022-10-16T10:26:11;3612.50;3612.50;3612.50
1723;PMS7003;7460;52.738;6.282;2022-10-16T10:28:52;3592.75;3592.75;3592.75
1723;PMS7003;7460;52.738;6.282;2022-10-16T10:31:38;3591.60;3591.60;3591.60
1723;PMS7003;7460;52.738;6.282;2022-10-16T10:34:25;3579.75;3579.75;3579.75
1723;PMS7003;7460;52.738;6.282;2022-10-16T10:37:09;3591.60;3591.60;3591.60
1723;PMS7003;7460;52.738;6.282;2022-10-16T10:40:00;3610.75;3610.75;3610.75
1723;PMS7003;7460;52.738;6.282;2022-10-16T10:42:44;3591.60;3591.60;3591.60
1723;PMS7003;7460;52.738;6.282;2022-10-16T10:45:25;3587.50;3587.50;3587.50
1723;PMS7003;7460;52.738;6.282;2022-10-16T10:48:06;3572.60;3572.60;3572.60
1723;PMS7003;7460;52.738;6.282;2022-10-16T10:50:52;3565.00;3565.00;3565.00
1723;PMS7003;7460;52.738;6.282;2022-10-16T10:53:32;3544.00;3544.00;3544.00
1723;PMS7003;7460;52.738;6.282;2022-10-16T10:56:21;3591.60;3591.60;3591.60
1723;PMS7003;7460;52.738;6.282;2022-10-16T10:59:20;3557.40;3557.40;3557.40
1723;PMS7003;7460;52.738;6.282;2022-10-16T11:02:10;3563.00;3563.00;3563.00
1723;PMS7003;7460;52.738;6.282;2022-10-16T11:04:53;3569.40;3569.40;3569.40
1723;PMS7003;7460;52.738;6.282;2022-10-16T11:07:41;3552.60;3552.60;3552.60
1723;PMS7003;7460;52.738;6.282;2022-10-16T11:10:21;3530.80;3530.80;3530.80
1723;PMS7003;7460;52.738;6.282;2022-10-16T11:12:58;3554.40;3554.40;3554.40
1723;PMS7003;7460;52.738;6.282;2022-10-16T11:15:41;3534.60;3534.60;3534.60
1723;PMS7003;7460;52.738;6.282;2022-10-16T11:18:19;3517.40;3517.40;3517.40
1723;PMS7003;7460;52.738;6.282;2022-10-16T11:20:57;3531.60;3531.60;3531.60
1723;PMS7003;7460;52.738;6.282;2022-10-16T11:23:35;3505.40;3505.40;3505.40
1723;PMS7003;7460;52.738;6.282;2022-10-16T11:26:18;3505.75;3505.75;3505.75
1723;PMS7003;7460;52.738;6.282;2022-10-16T11:28:54;3533.00;3533.00;3533.00
1723;PMS7003;7460;52.738;6.282;2022-10-16T11:31:32;3517.40;3517.40;3517.40
1723;PMS7003;7460;52.738;6.282;2022-10-16T11:34:12;3489.80;3489.80;3489.80
1723;PMS7003;7460;52.738;6.282;2022-10-16T11:36:56;3534.50;3534.50;3534.50
1723;PMS7003;7460;52.738;6.282;2022-10-16T11:39:32;3525.75;3525.75;3525.75
1723;PMS7003;7460;52.738;6.282;2022-10-16T11:42:08;3534.50;3534.50;3534.50
1723;PMS7003;7460;52.738;6.282;2022-10-16T11:44:45;3488.40;3488.40;3488.40
1723;PMS7003;7460;52.738;6.282;2022-10-16T11:47:30;2496.00;2496.00;2465.75
1723;PMS7003;7460;52.738;6.282;2022-10-16T11:50:28;2150.00;2150.00;2121.00
1723;PMS7003;7460;52.738;6.282;2022-10-16T11:53:13;3530.80;3530.80;3530.80
1723;PMS7003;7460;52.738;6.282;2022-10-16T11:55:50;3514.75;3514.75;3514.75
1723;PMS7003;7460;52.738;6.282;2022-10-16T11:58:24;3496.25;3496.25;3496.25
1723;PMS7003;7460;52.738;6.282;2022-10-16T12:01:10;3527.50;3527.50;3527.50
1723;PMS7003;7460;52.738;6.282;2022-10-16T12:03:54;3513.25;3513.25;3513.25
1723;PMS7003;7460;52.738;6.282;2022-10-16T12:06:37;3511.00;3511.00;3511.00
1723;PMS7003;7460;52.738;6.282;2022-10-16T12:09:18;3509.25;3509.25;3509.25
1723;PMS7003;7460;52.738;6.282;2022-10-16T12:11:55;3496.25;3496.25;3496.25
1723;PMS7003;7460;52.738;6.282;2022-10-16T12:14:38;3501.75;3501.75;3501.75
1723;PMS7003;7460;52.738;6.282;2022-10-16T12:17:34;3504.00;3504.00;3504.00
1723;PMS7003;7460;52.738;6.282;2022-10-16T12:20:19;3509.25;3509.25;3509.25
1723;PMS7003;7460;52.738;6.282;2022-10-16T12:22:59;3511.25;3511.25;3511.25
1723;PMS7003;7460;52.738;6.282;2022-10-16T12:25:36;3504.00;3504.00;3504.00
1723;PMS7003;7460;52.738;6.282;2022-10-16T12:28:19;3480.25;3480.25;3480.25
1723;PMS7003;7460;52.738;6.282;2022-10-16T12:30:54;3492.75;3492.75;3492.75
1723;PMS7003;7460;52.738;6.282;2022-10-16T12:33:29;3466.00;3466.00;3466.00
1723;PMS7003;7460;52.738;6.282;2022-10-16T12:36:03;3473.00;3473.00;3473.00
1723;PMS7003;7460;52.738;6.282;2022-10-16T12:38:45;3171.00;3171.00;3142.50
1723;PMS7003;7460;52.738;6.282;2022-10-16T12:41:26;3487.50;3487.50;3487.50
1723;PMS7003;7460;52.738;6.282;2022-10-16T12:44:01;3499.60;3499.60;3499.60
1723;PMS7003;7460;52.738;6.282;2022-10-16T12:46:36;3487.25;3487.25;3487.25
1723;PMS7003;7460;52.738;6.282;2022-10-16T12:49:20;3480.80;3480.80;3480.80
1723;PMS7003;7460;52.738;6.282;2022-10-16T12:52:01;3509.40;3509.40;3509.40
1723;PMS7003;7460;52.738;6.282;2022-10-16T12:54:35;3487.25;3487.25;3487.25
1723;PMS7003;7460;52.738;6.282;2022-10-16T12:57:17;3483.80;3483.80;3483.80
1723;PMS7003;7460;52.738;6.282;2022-10-16T13:00:11;3473.00;3473.00;3473.00
1723;PMS7003;7460;52.738;6.282;2022-10-16T13:06:16;3466.00;3466.00;3466.00
1723;PMS7003;7460;52.738;6.282;2022-10-16T13:09:11;3476.50;3476.50;3476.50
1723;PMS7003;7460;52.738;6.282;2022-10-16T13:11:58;3459.60;3459.60;3459.60
1723;PMS7003;7460;52.738;6.282;2022-10-16T13:14:51;3441.25;3441.25;3441.25
1723;PMS7003;7460;52.738;6.282;2022-10-16T13:17:37;3466.00;3466.00;3466.00
1723;PMS7003;7460;52.738;6.282;2022-10-16T13:20:19;3473.40;3473.40;3473.40
1723;PMS7003;7460;52.738;6.282;2022-10-16T13:22:59;3473.40;3473.40;3473.40
1723;PMS7003;7460;52.738;6.282;2022-10-16T13:25:44;3441.00;3441.00;3441.00
1723;PMS7003;7460;52.738;6.282;2022-10-16T13:28:29;3469.40;3469.40;3469.40
1723;PMS7003;7460;52.738;6.282;2022-10-16T13:31:09;3462.25;3462.25;3462.25
1723;PMS7003;7460;52.738;6.282;2022-10-16T13:33:48;3465.20;3465.20;3465.20
1723;PMS7003;7460;52.738;6.282;2022-10-16T13:36:26;3452.40;3452.40;3452.40
1723;PMS7003;7460;52.738;6.282;2022-10-16T13:39:01;3462.25;3462.25;3462.25
1723;PMS7003;7460;52.738;6.282;2022-10-16T13:41:43;3459.60;3459.60;3459.60
1723;PMS7003;7460;52.738;6.282;2022-10-16T13:44:17;3471.25;3471.25;3471.25
1723;PMS7003;7460;52.738;6.282;2022-10-16T13:46:59;3476.40;3476.40;3476.40
1723;PMS7003;7460;52.738;6.282;2022-10-16T13:49:32;3466.80;3466.80;3466.80
1723;PMS7003;7460;52.738;6.282;2022-10-16T13:52:05;3466.00;3466.00;3466.00
1723;PMS7003;7460;52.738;6.282;2022-10-16T13:54:38;3457.25;3457.25;3457.25
1723;PMS7003;7460;52.738;6.282;2022-10-16T13:57:13;3479.20;3479.20;3479.20
1723;PMS7003;7460;52.738;6.282;2022-10-16T13:59:57;3481.20;3481.20;3481.20
1723;PMS7003;7460;52.738;6.282;2022-10-16T14:02:33;3462.50;3462.50;3462.50
1723;PMS7003;7460;52.738;6.282;2022-10-16T14:05:10;3483.75;3483.75;3483.75
1723;PMS7003;7460;52.738;6.282;2022-10-16T14:07:48;3473.25;3473.25;3473.25
1723;PMS7003;7460;52.738;6.282;2022-10-16T14:10:23;3467.75;3467.75;3467.75
1723;PMS7003;7460;52.738;6.282;2022-10-16T14:13:01;3475.00;3475.00;3475.00
1723;PMS7003;7460;52.738;6.282;2022-10-16T14:15:36;3467.75;3467.75;3467.75
1723;PMS7003;7460;52.738;6.282;2022-10-16T14:18:14;3466.00;3466.00;3466.00